Terminal Aerodrome Forecast
Issued by NWS Twin Cities, MN

Home | Current Version | Previous Version | Text Only | Print | Product List | Glossary Off
Versions: 1 2 3 4 5 6 7 8 9 10 11 12 13 14 15 16 17 18 19 20 21 22 23 24 25

677
FTUS43 KMPX 272058 AAA
TAFMSP
TAF AMD
KMSP 272058Z 2721/2824 18012G20KT P6SM BKN250
     FM280100 16011KT P6SM SCT120 BKN200
     FM280800 15012KT P6SM VCSH BKN050 OVC080
     FM281000 15012G20KT 3SM TSRA BKN025CB OVC050
     FM281400 17013G22KT P6SM -SHRA BKN020 OVC040
     FM281700 21014G24KT P6SM SCT025 BKN040
     FM282000 24014G22KT P6SM VCSH SCT030 BKN050=

USA.gov is the U.S. government's official web portal to all federal, state and local government web resources and services.